Observations for LOSSIEMOUTH RAF, United Kingdom (EGQS)

EGQS 130850Z 18012KT 9999 FEW023 SCT030 BKN280 05/01 Q1017 BLU NOSIG
EGQS 130759Z 16007KT 9999 FEW025 SCT045 BKN280 04/01 Q1016 BLU NOSIG
EGQS 130750Z AUTO 15007KT 9999 // NCD 04/01 Q1016
EGQS 130650Z 15010KT 9999 FEW025 BKN280 04/01 Q1017 BLU NOSIG   
EGQS 130550Z 15010KT 9999 FEW027 SCT040 BKN280 04/00 Q1017 BLU  
EGQS 130450Z 15013KT 9999 FEW035 BKN280 04/M00 Q1016 BLU
EGQS 130350Z 15013KT 9999 FEW038 BKN280 05/M01 Q1016 BLU
EGQS 130250Z 15016KT 9999 FEW038 BKN280 05/M01 Q1016 BLU
EGQS 130150Z 15021KT 9999 FEW038 SCT250 06/M01 Q1017 BLU
EGQS 130050Z 16017G27KT 9999 BKN035 06/M00 Q1017 BLU
EGQS 122350Z 16016KT 9999 BKN034 06/M00 Q1017 BLU   
EGQS 122250Z 15017KT 9999 SCT034 BKN250 06/M00 Q1016 BLU
EGQS 122150Z 15021G32KT 9999 FEW035 BKN250 06/M00 Q1016 BLU 
EGQS 122050Z 16016KT 9999 FEW034 SCT044 06/00 Q1017 BLU 
EGQS 121950Z 14014KT 9999 FEW030 SCT040 07/02 Q1017 BLU 
EGQS 121850Z 15016KT 9999 FEW034 SCT140 07/02 Q1017 BLU 
EGQS 121750Z 16018KT 9999 FEW030 07/03 Q1017 BLU
EGQS 121650Z 15018KT 9999 FEW025 SCT090 08/03 Q1017 BLU NOSIG   
EGQS 121550Z 16022KT 9999 FEW026 SCT070 BKN090 08/03 Q1016 BLU NOSIG
EGQS 121450Z 16015G25KT 9999 FEW025 BKN080 08/04 Q1016 BLU NOSIG
EGQS 121350Z 16021KT 9999 FEW024 SCT080 09/04 Q1017 BLU NOSIG   
EGQS 121250Z 15020G30KT 9999 FEW021 SCT130 08/04 Q1017 BLU NOSIG
EGQS 121150Z 14021KT 9999 FEW040 SCT120 BKN300 08/04 Q1017 BLU NOSIG
EGQS 121050Z 16017KT 9999 FEW040 SCT120 BKN300 08/05 Q1018 BLU NOSIG
EGQS 120950Z 15020KT 9999 FEW040 BKN130 07/05 Q1018 BLU NOSIG   
EGQS 120850Z 16015KT 9999 FEW038 BKN120 07/05 Q1018 BLU NOSIG